sensor_id;sensor_type;location;lat;lon;timestamp;P1;durP1;ratioP1;P2;durP2;ratioP2
21519;SDS011;10921;53.614;9.882;2023-12-20T00:01:58;38.58;;;27.80;;
21519;SDS011;10921;53.614;9.882;2023-12-20T00:04:25;33.97;;;27.60;;
21519;SDS011;10921;53.614;9.882;2023-12-20T00:06:52;37.55;;;27.75;;
21519;SDS011;10921;53.614;9.882;2023-12-20T00:09:19;39.92;;;27.70;;
21519;SDS011;10921;53.614;9.882;2023-12-20T00:11:46;35.55;;;27.67;;
21519;SDS011;10921;53.614;9.882;2023-12-20T00:14:12;38.17;;;28.15;;
21519;SDS011;10921;53.614;9.882;2023-12-20T00:16:39;43.28;;;29.15;;
21519;SDS011;10921;53.614;9.882;2023-12-20T00:19:06;39.40;;;27.50;;
21519;SDS011;10921;53.614;9.882;2023-12-20T00:21:32;41.58;;;28.50;;
21519;SDS011;10921;53.614;9.882;2023-12-20T00:23:59;42.85;;;28.58;;
21519;SDS011;10921;53.614;9.882;2023-12-20T00:26:26;34.17;;;28.95;;
21519;SDS011;10921;53.614;9.882;2023-12-20T00:28:54;42.90;;;29.35;;
21519;SDS011;10921;53.614;9.882;2023-12-20T00:31:20;48.40;;;30.15;;
21519;SDS011;10921;53.614;9.882;2023-12-20T00:33:47;36.00;;;29.27;;
21519;SDS011;10921;53.614;9.882;2023-12-20T00:36:14;42.45;;;30.02;;
21519;SDS011;10921;53.614;9.882;2023-12-20T00:38:40;53.65;;;30.33;;
21519;SDS011;10921;53.614;9.882;2023-12-20T00:41:07;40.05;;;28.23;;
21519;SDS011;10921;53.614;9.882;2023-12-20T00:43:33;45.22;;;28.15;;
21519;SDS011;10921;53.614;9.882;2023-12-20T00:46:00;50.08;;;28.50;;
21519;SDS011;10921;53.614;9.882;2023-12-20T00:48:26;41.70;;;27.13;;
21519;SDS011;10921;53.614;9.882;2023-12-20T00:50:53;42.13;;;28.38;;
21519;SDS011;10921;53.614;9.882;2023-12-20T00:53:20;37.17;;;27.75;;
21519;SDS011;10921;53.614;9.882;2023-12-20T00:55:46;40.47;;;27.10;;
21519;SDS011;10921;53.614;9.882;2023-12-20T00:58:13;49.40;;;27.85;;
21519;SDS011;10921;53.614;9.882;2023-12-20T01:00:41;47.13;;;27.67;;
21519;SDS011;10921;53.614;9.882;2023-12-20T01:03:10;41.30;;;26.65;;
21519;SDS011;10921;53.614;9.882;2023-12-20T01:05:36;52.42;;;28.15;;
21519;SDS011;10921;53.614;9.882;2023-12-20T01:08:03;42.45;;;27.10;;
21519;SDS011;10921;53.614;9.882;2023-12-20T01:10:30;48.25;;;27.65;;
21519;SDS011;10921;53.614;9.882;2023-12-20T01:12:56;43.63;;;26.60;;
21519;SDS011;10921;53.614;9.882;2023-12-20T01:15:23;37.90;;;26.15;;
21519;SDS011;10921;53.614;9.882;2023-12-20T01:17:49;47.80;;;26.88;;
21519;SDS011;10921;53.614;9.882;2023-12-20T01:20:16;39.05;;;26.77;;
21519;SDS011;10921;53.614;9.882;2023-12-20T01:22:43;42.40;;;27.75;;
21519;SDS011;10921;53.614;9.882;2023-12-20T01:25:12;47.05;;;27.73;;
21519;SDS011;10921;53.614;9.882;2023-12-20T01:27:38;55.70;;;30.27;;
21519;SDS011;10921;53.614;9.882;2023-12-20T01:30:05;36.28;;;27.88;;
21519;SDS011;10921;53.614;9.882;2023-12-20T01:32:32;40.65;;;27.92;;
21519;SDS011;10921;53.614;9.882;2023-12-20T01:34:59;50.03;;;27.88;;
21519;SDS011;10921;53.614;9.882;2023-12-20T01:37:28;35.83;;;28.10;;
21519;SDS011;10921;53.614;9.882;2023-12-20T01:39:55;44.05;;;27.17;;
21519;SDS011;10921;53.614;9.882;2023-12-20T01:42:22;44.65;;;27.98;;
21519;SDS011;10921;53.614;9.882;2023-12-20T01:44:49;46.20;;;26.77;;
21519;SDS011;10921;53.614;9.882;2023-12-20T01:47:16;43.30;;;27.83;;
21519;SDS011;10921;53.614;9.882;2023-12-20T01:49:43;43.67;;;27.15;;
21519;SDS011;10921;53.614;9.882;2023-12-20T01:52:10;42.90;;;26.70;;
21519;SDS011;10921;53.614;9.882;2023-12-20T01:54:38;43.30;;;26.95;;
21519;SDS011;10921;53.614;9.882;2023-12-20T01:57:06;42.92;;;26.45;;
21519;SDS011;10921;53.614;9.882;2023-12-20T01:59:33;49.30;;;26.33;;
21519;SDS011;10921;53.614;9.882;2023-12-20T02:02:01;42.85;;;25.85;;
21519;SDS011;10921;53.614;9.882;2023-12-20T02:04:29;43.50;;;25.63;;
21519;SDS011;10921;53.614;9.882;2023-12-20T02:06:57;46.42;;;25.92;;
21519;SDS011;10921;53.614;9.882;2023-12-20T02:09:25;40.13;;;25.85;;
21519;SDS011;10921;53.614;9.882;2023-12-20T02:11:53;33.42;;;25.23;;
21519;SDS011;10921;53.614;9.882;2023-12-20T02:14:20;49.60;;;26.98;;
21519;SDS011;10921;53.614;9.882;2023-12-20T02:16:47;48.22;;;26.33;;
21519;SDS011;10921;53.614;9.882;2023-12-20T02:19:14;38.58;;;25.63;;
21519;SDS011;10921;53.614;9.882;2023-12-20T02:21:42;36.67;;;25.88;;
21519;SDS011;10921;53.614;9.882;2023-12-20T02:24:08;41.95;;;26.25;;
21519;SDS011;10921;53.614;9.882;2023-12-20T02:26:35;47.42;;;26.08;;
21519;SDS011;10921;53.614;9.882;2023-12-20T02:29:02;38.45;;;25.58;;
21519;SDS011;10921;53.614;9.882;2023-12-20T02:31:28;40.88;;;24.77;;
21519;SDS011;10921;53.614;9.882;2023-12-20T02:33:55;46.70;;;25.48;;
21519;SDS011;10921;53.614;9.882;2023-12-20T02:36:22;54.08;;;25.90;;
21519;SDS011;10921;53.614;9.882;2023-12-20T02:38:48;35.67;;;24.23;;
21519;SDS011;10921;53.614;9.882;2023-12-20T02:41:16;40.88;;;24.25;;
21519;SDS011;10921;53.614;9.882;2023-12-20T02:43:44;30.73;;;22.75;;
21519;SDS011;10921;53.614;9.882;2023-12-20T02:46:11;35.85;;;23.17;;
21519;SDS011;10921;53.614;9.882;2023-12-20T02:48:38;35.75;;;22.67;;
21519;SDS011;10921;53.614;9.882;2023-12-20T02:51:05;32.38;;;23.27;;
21519;SDS011;10921;53.614;9.882;2023-12-20T02:53:31;39.00;;;22.88;;
21519;SDS011;10921;53.614;9.882;2023-12-20T02:55:58;38.78;;;22.65;;
21519;SDS011;10921;53.614;9.882;2023-12-20T02:58:24;36.10;;;22.40;;
21519;SDS011;10921;53.614;9.882;2023-12-20T03:00:51;34.85;;;21.67;;
21519;SDS011;10921;53.614;9.882;2023-12-20T03:03:17;33.95;;;23.33;;
21519;SDS011;10921;53.614;9.882;2023-12-20T03:05:45;34.03;;;22.02;;
21519;SDS011;10921;53.614;9.882;2023-12-20T03:08:12;37.28;;;22.55;;
21519;SDS011;10921;53.614;9.882;2023-12-20T03:10:39;38.15;;;21.95;;
21519;SDS011;10921;53.614;9.882;2023-12-20T03:13:05;41.05;;;21.67;;
21519;SDS011;10921;53.614;9.882;2023-12-20T03:15:32;33.15;;;21.15;;
21519;SDS011;10921;53.614;9.882;2023-12-20T03:17:58;44.65;;;22.60;;
21519;SDS011;10921;53.614;9.882;2023-12-20T03:20:25;28.35;;;21.20;;
21519;SDS011;10921;53.614;9.882;2023-12-20T03:22:52;33.42;;;21.05;;
21519;SDS011;10921;53.614;9.882;2023-12-20T03:25:18;39.83;;;20.10;;
21519;SDS011;10921;53.614;9.882;2023-12-20T03:27:45;30.85;;;21.80;;
21519;SDS011;10921;53.614;9.882;2023-12-20T03:30:12;42.78;;;21.30;;
21519;SDS011;10921;53.614;9.882;2023-12-20T03:32:39;41.17;;;21.25;;
21519;SDS011;10921;53.614;9.882;2023-12-20T03:35:05;39.88;;;21.83;;
21519;SDS011;10921;53.614;9.882;2023-12-20T03:37:32;33.17;;;21.25;;
21519;SDS011;10921;53.614;9.882;2023-12-20T03:39:58;33.20;;;19.63;;
21519;SDS011;10921;53.614;9.882;2023-12-20T03:42:25;28.58;;;19.92;;
21519;SDS011;10921;53.614;9.882;2023-12-20T03:44:52;31.15;;;19.38;;
21519;SDS011;10921;53.614;9.882;2023-12-20T03:47:18;36.47;;;19.10;;
21519;SDS011;10921;53.614;9.882;2023-12-20T03:49:45;49.72;;;18.67;;
21519;SDS011;10921;53.614;9.882;2023-12-20T03:52:11;33.22;;;18.10;;
21519;SDS011;10921;53.614;9.882;2023-12-20T03:54:38;29.35;;;17.58;;
21519;SDS011;10921;53.614;9.882;2023-12-20T03:57:07;40.35;;;18.75;;
21519;SDS011;10921;53.614;9.882;2023-12-20T03:59:34;28.27;;;17.35;;
21519;SDS011;10921;53.614;9.882;2023-12-20T04:02:02;39.53;;;22.02;;
21519;SDS011;10921;53.614;9.882;2023-12-20T04:04:29;33.00;;;24.13;;
21519;SDS011;10921;53.614;9.882;2023-12-20T04:06:56;31.55;;;24.08;;
21519;SDS011;10921;53.614;9.882;2023-12-20T04:09:23;36.20;;;23.98;;
21519;SDS011;10921;53.614;9.882;2023-12-20T04:11:49;41.40;;;24.77;;
21519;SDS011;10921;53.614;9.882;2023-12-20T04:14:16;29.95;;;25.65;;
21519;SDS011;10921;53.614;9.882;2023-12-20T04:16:43;39.35;;;25.05;;
21519;SDS011;10921;53.614;9.882;2023-12-20T04:19:12;34.97;;;26.27;;
21519;SDS011;10921;53.614;9.882;2023-12-20T04:21:39;39.05;;;25.45;;
21519;SDS011;10921;53.614;9.882;2023-12-20T04:24:06;32.38;;;25.23;;
21519;SDS011;10921;53.614;9.882;2023-12-20T04:26:32;35.15;;;26.50;;
21519;SDS011;10921;53.614;9.882;2023-12-20T04:28:59;39.25;;;23.77;;
21519;SDS011;10921;53.614;9.882;2023-12-20T04:31:25;39.42;;;24.25;;
21519;SDS011;10921;53.614;9.882;2023-12-20T04:33:52;38.25;;;24.10;;
21519;SDS011;10921;53.614;9.882;2023-12-20T04:36:19;41.50;;;22.27;;
21519;SDS011;10921;53.614;9.882;2023-12-20T04:38:45;39.70;;;22.92;;
21519;SDS011;10921;53.614;9.882;2023-12-20T04:41:12;28.92;;;21.35;;
21519;SDS011;10921;53.614;9.882;2023-12-20T04:43:42;38.75;;;22.95;;
21519;SDS011;10921;53.614;9.882;2023-12-20T04:46:08;24.50;;;20.35;;
21519;SDS011;10921;53.614;9.882;2023-12-20T04:48:35;38.65;;;21.73;;
21519;SDS011;10921;53.614;9.882;2023-12-20T04:51:01;33.95;;;20.83;;
21519;SDS011;10921;53.614;9.882;2023-12-20T04:53:28;46.15;;;20.85;;
21519;SDS011;10921;53.614;9.882;2023-12-20T04:55:55;34.97;;;20.25;;
21519;SDS011;10921;53.614;9.882;2023-12-20T04:58:21;35.97;;;20.08;;
21519;SDS011;10921;53.614;9.882;2023-12-20T05:00:48;31.90;;;19.65;;
21519;SDS011;10921;53.614;9.882;2023-12-20T05:03:14;31.90;;;18.92;;
21519;SDS011;10921;53.614;9.882;2023-12-20T05:05:41;29.88;;;18.77;;
21519;SDS011;10921;53.614;9.882;2023-12-20T05:08:08;26.42;;;18.00;;
21519;SDS011;10921;53.614;9.882;2023-12-20T05:10:34;34.40;;;18.85;;
21519;SDS011;10921;53.614;9.882;2023-12-20T05:13:02;39.40;;;17.75;;
21519;SDS011;10921;53.614;9.882;2023-12-20T05:15:29;33.63;;;17.00;;
21519;SDS011;10921;53.614;9.882;2023-12-20T05:17:56;33.75;;;16.92;;
21519;SDS011;10921;53.614;9.882;2023-12-20T05:20:23;30.92;;;15.70;;
21519;SDS011;10921;53.614;9.882;2023-12-20T05:22:50;32.25;;;15.68;;
21519;SDS011;10921;53.614;9.882;2023-12-20T05:25:17;32.33;;;15.02;;
21519;SDS011;10921;53.614;9.882;2023-12-20T05:27:45;30.83;;;15.07;;
21519;SDS011;10921;53.614;9.882;2023-12-20T05:30:12;33.35;;;15.40;;
21519;SDS011;10921;53.614;9.882;2023-12-20T05:32:40;40.60;;;19.95;;
21519;SDS011;10921;53.614;9.882;2023-12-20T05:35:06;48.33;;;24.77;;
21519;SDS011;10921;53.614;9.882;2023-12-20T05:37:33;40.28;;;26.63;;
21519;SDS011;10921;53.614;9.882;2023-12-20T05:40:00;39.70;;;28.60;;
21519;SDS011;10921;53.614;9.882;2023-12-20T05:42:26;35.80;;;27.73;;
21519;SDS011;10921;53.614;9.882;2023-12-20T05:44:53;42.05;;;28.27;;
21519;SDS011;10921;53.614;9.882;2023-12-20T05:47:25;44.22;;;28.15;;
21519;SDS011;10921;53.614;9.882;2023-12-20T05:49:52;46.38;;;29.45;;
21519;SDS011;10921;53.614;9.882;2023-12-20T05:52:19;49.67;;;28.05;;
21519;SDS011;10921;53.614;9.882;2023-12-20T05:54:46;43.33;;;29.27;;
21519;SDS011;10921;53.614;9.882;2023-12-20T05:57:12;46.25;;;29.30;;
21519;SDS011;10921;53.614;9.882;2023-12-20T05:59:39;44.30;;;28.33;;
21519;SDS011;10921;53.614;9.882;2023-12-20T06:02:06;41.95;;;27.50;;
21519;SDS011;10921;53.614;9.882;2023-12-20T06:04:32;45.22;;;28.92;;
21519;SDS011;10921;53.614;9.882;2023-12-20T06:06:59;46.60;;;29.02;;
21519;SDS011;10921;53.614;9.882;2023-12-20T06:09:29;45.67;;;28.10;;
21519;SDS011;10921;53.614;9.882;2023-12-20T06:11:57;46.05;;;28.92;;
21519;SDS011;10921;53.614;9.882;2023-12-20T06:14:24;46.45;;;29.75;;
21519;SDS011;10921;53.614;9.882;2023-12-20T06:16:50;56.88;;;30.05;;
21519;SDS011;10921;53.614;9.882;2023-12-20T06:19:17;41.55;;;29.13;;
21519;SDS011;10921;53.614;9.882;2023-12-20T06:21:44;41.17;;;28.27;;
21519;SDS011;10921;53.614;9.882;2023-12-20T06:24:10;42.20;;;28.58;;
21519;SDS011;10921;53.614;9.882;2023-12-20T06:26:37;55.53;;;28.55;;
21519;SDS011;10921;53.614;9.882;2023-12-20T06:29:07;39.35;;;27.15;;
21519;SDS011;10921;53.614;9.882;2023-12-20T06:31:33;45.03;;;27.15;;
21519;SDS011;10921;53.614;9.882;2023-12-20T06:34:00;39.90;;;25.95;;
21519;SDS011;10921;53.614;9.882;2023-12-20T06:36:27;46.38;;;25.55;;
21519;SDS011;10921;53.614;9.882;2023-12-20T06:38:54;40.28;;;25.65;;
21519;SDS011;10921;53.614;9.882;2023-12-20T06:41:20;42.70;;;25.67;;
21519;SDS011;10921;53.614;9.882;2023-12-20T06:43:47;48.92;;;25.77;;
21519;SDS011;10921;53.614;9.882;2023-12-20T06:46:16;38.30;;;24.52;;
21519;SDS011;10921;53.614;9.882;2023-12-20T06:48:43;41.72;;;24.05;;
21519;SDS011;10921;53.614;9.882;2023-12-20T06:51:14;41.88;;;24.77;;
21519;SDS011;10921;53.614;9.882;2023-12-20T06:53:42;41.05;;;24.55;;
21519;SDS011;10921;53.614;9.882;2023-12-20T06:56:09;44.72;;;24.20;;
21519;SDS011;10921;53.614;9.882;2023-12-20T06:58:39;44.10;;;24.30;;
21519;SDS011;10921;53.614;9.882;2023-12-20T07:01:10;30.85;;;23.00;;
21519;SDS011;10921;53.614;9.882;2023-12-20T07:03:38;44.13;;;23.23;;
21519;SDS011;10921;53.614;9.882;2023-12-20T07:06:04;44.53;;;22.00;;
21519;SDS011;10921;53.614;9.882;2023-12-20T07:08:31;39.42;;;21.25;;
21519;SDS011;10921;53.614;9.882;2023-12-20T07:10:57;36.25;;;21.73;;
21519;SDS011;10921;53.614;9.882;2023-12-20T07:13:24;40.63;;;21.73;;
21519;SDS011;10921;53.614;9.882;2023-12-20T07:15:51;39.20;;;21.77;;
21519;SDS011;10921;53.614;9.882;2023-12-20T07:18:17;44.45;;;22.38;;
21519;SDS011;10921;53.614;9.882;2023-12-20T07:20:44;45.35;;;20.08;;
21519;SDS011;10921;53.614;9.882;2023-12-20T07:23:10;42.42;;;20.05;;
21519;SDS011;10921;53.614;9.882;2023-12-20T07:25:37;40.08;;;17.95;;
21519;SDS011;10921;53.614;9.882;2023-12-20T07:28:04;45.25;;;18.17;;
21519;SDS011;10921;53.614;9.882;2023-12-20T07:30:31;39.22;;;16.85;;
21519;SDS011;10921;53.614;9.882;2023-12-20T07:32:58;39.47;;;16.40;;
21519;SDS011;10921;53.614;9.882;2023-12-20T07:35:24;38.70;;;16.83;;
21519;SDS011;10921;53.614;9.882;2023-12-20T07:37:51;40.40;;;16.20;;
21519;SDS011;10921;53.614;9.882;2023-12-20T07:40:18;42.90;;;17.27;;
21519;SDS011;10921;53.614;9.882;2023-12-20T07:42:44;49.42;;;19.63;;
21519;SDS011;10921;53.614;9.882;2023-12-20T07:45:11;40.35;;;18.70;;
21519;SDS011;10921;53.614;9.882;2023-12-20T07:47:39;39.85;;;17.27;;
21519;SDS011;10921;53.614;9.882;2023-12-20T07:50:07;46.83;;;16.95;;
21519;SDS011;10921;53.614;9.882;2023-12-20T07:52:34;43.13;;;16.30;;
21519;SDS011;10921;53.614;9.882;2023-12-20T07:55:00;38.40;;;17.45;;
21519;SDS011;10921;53.614;9.882;2023-12-20T07:57:30;48.50;;;17.38;;
21519;SDS011;10921;53.614;9.882;2023-12-20T07:59:57;44.23;;;17.27;;
21519;SDS011;10921;53.614;9.882;2023-12-20T08:02:24;33.92;;;16.23;;
21519;SDS011;10921;53.614;9.882;2023-12-20T08:04:50;34.70;;;16.98;;
21519;SDS011;10921;53.614;9.882;2023-12-20T08:07:17;29.50;;;15.07;;
21519;SDS011;10921;53.614;9.882;2023-12-20T08:09:43;43.58;;;16.42;;
21519;SDS011;10921;53.614;9.882;2023-12-20T08:12:10;36.95;;;16.33;;
21519;SDS011;10921;53.614;9.882;2023-12-20T08:14:37;39.05;;;18.75;;
21519;SDS011;10921;53.614;9.882;2023-12-20T08:17:04;47.53;;;21.05;;
21519;SDS011;10921;53.614;9.882;2023-12-20T08:19:31;49.97;;;21.25;;
21519;SDS011;10921;53.614;9.882;2023-12-20T08:21:57;36.90;;;20.17;;
21519;SDS011;10921;53.614;9.882;2023-12-20T08:24:24;46.20;;;20.95;;
21519;SDS011;10921;53.614;9.882;2023-12-20T08:26:50;38.33;;;20.52;;
21519;SDS011;10921;53.614;9.882;2023-12-20T08:29:17;46.47;;;19.40;;
21519;SDS011;10921;53.614;9.882;2023-12-20T08:31:43;44.92;;;19.25;;
21519;SDS011;10921;53.614;9.882;2023-12-20T08:34:10;39.83;;;17.75;;
21519;SDS011;10921;53.614;9.882;2023-12-20T08:36:39;32.97;;;16.88;;
21519;SDS011;10921;53.614;9.882;2023-12-20T08:39:06;44.92;;;17.25;;
21519;SDS011;10921;53.614;9.882;2023-12-20T08:41:34;43.45;;;15.73;;
21519;SDS011;10921;53.614;9.882;2023-12-20T08:44:02;32.42;;;16.33;;
21519;SDS011;10921;53.614;9.882;2023-12-20T08:46:29;33.78;;;16.85;;
21519;SDS011;10921;53.614;9.882;2023-12-20T08:48:56;33.03;;;17.23;;
21519;SDS011;10921;53.614;9.882;2023-12-20T08:51:23;37.67;;;20.27;;
21519;SDS011;10921;53.614;9.882;2023-12-20T08:53:51;44.30;;;21.25;;
21519;SDS011;10921;53.614;9.882;2023-12-20T08:56:18;39.80;;;20.63;;
21519;SDS011;10921;53.614;9.882;2023-12-20T08:58:47;47.38;;;23.63;;
21519;SDS011;10921;53.614;9.882;2023-12-20T09:01:14;42.03;;;22.97;;
21519;SDS011;10921;53.614;9.882;2023-12-20T09:03:41;36.63;;;24.83;;
21519;SDS011;10921;53.614;9.882;2023-12-20T09:06:08;37.58;;;24.15;;
21519;SDS011;10921;53.614;9.882;2023-12-20T09:08:34;34.03;;;24.98;;
21519;SDS011;10921;53.614;9.882;2023-12-20T09:11:01;35.95;;;27.17;;
21519;SDS011;10921;53.614;9.882;2023-12-20T09:13:28;33.83;;;27.65;;
21519;SDS011;10921;53.614;9.882;2023-12-20T09:15:55;42.42;;;28.23;;
21519;SDS011;10921;53.614;9.882;2023-12-20T09:18:23;35.08;;;26.98;;
21519;SDS011;10921;53.614;9.882;2023-12-20T09:20:50;32.92;;;25.80;;
21519;SDS011;10921;53.614;9.882;2023-12-20T09:23:17;33.30;;;26.00;;
21519;SDS011;10921;53.614;9.882;2023-12-20T09:25:44;29.73;;;25.90;;
21519;SDS011;10921;53.614;9.882;2023-12-20T09:28:11;28.63;;;25.98;;
21519;SDS011;10921;53.614;9.882;2023-12-20T09:30:37;28.35;;;25.55;;
21519;SDS011;10921;53.614;9.882;2023-12-20T09:33:06;28.15;;;25.27;;
21519;SDS011;10921;53.614;9.882;2023-12-20T09:35:34;28.63;;;25.83;;
21519;SDS011;10921;53.614;9.882;2023-12-20T09:38:00;27.85;;;25.33;;
21519;SDS011;10921;53.614;9.882;2023-12-20T09:40:27;28.42;;;25.50;;
21519;SDS011;10921;53.614;9.882;2023-12-20T09:43:01;26.48;;;24.15;;
21519;SDS011;10921;53.614;9.882;2023-12-20T09:45:31;28.50;;;25.98;;
21519;SDS011;10921;53.614;9.882;2023-12-20T09:47:58;30.02;;;27.10;;
21519;SDS011;10921;53.614;9.882;2023-12-20T09:50:26;28.35;;;25.70;;
21519;SDS011;10921;53.614;9.882;2023-12-20T09:52:53;29.30;;;26.27;;
21519;SDS011;10921;53.614;9.882;2023-12-20T09:55:20;28.60;;;25.33;;
21519;SDS011;10921;53.614;9.882;2023-12-20T09:57:48;27.75;;;25.17;;
21519;SDS011;10921;53.614;9.882;2023-12-20T10:00:15;27.45;;;25.20;;
21519;SDS011;10921;53.614;9.882;2023-12-20T10:02:50;27.52;;;25.15;;
21519;SDS011;10921;53.614;9.882;2023-12-20T10:05:27;28.17;;;25.67;;
21519;SDS011;10921;53.614;9.882;2023-12-20T10:07:54;28.00;;;25.55;;
21519;SDS011;10921;53.614;9.882;2023-12-20T10:10:21;27.75;;;25.35;;
21519;SDS011;10921;53.614;9.882;2023-12-20T10:13:03;26.60;;;24.45;;
21519;SDS011;10921;53.614;9.882;2023-12-20T10:15:35;25.25;;;23.35;;
21519;SDS011;10921;53.614;9.882;2023-12-20T10:18:03;25.85;;;23.02;;
21519;SDS011;10921;53.614;9.882;2023-12-20T10:20:31;24.25;;;22.00;;
21519;SDS011;10921;53.614;9.882;2023-12-20T10:22:58;24.95;;;22.50;;
21519;SDS011;10921;53.614;9.882;2023-12-20T10:25:26;24.90;;;23.00;;
21519;SDS011;10921;53.614;9.882;2023-12-20T10:30:41;23.17;;;21.30;;
21519;SDS011;10921;53.614;9.882;2023-12-20T10:33:09;23.98;;;21.80;;
21519;SDS011;10921;53.614;9.882;2023-12-20T10:35:37;23.33;;;21.17;;
21519;SDS011;10921;53.614;9.882;2023-12-20T10:38:06;23.30;;;21.27;;
21519;SDS011;10921;53.614;9.882;2023-12-20T10:40:34;22.77;;;20.92;;
21519;SDS011;10921;53.614;9.882;2023-12-20T10:45:30;21.80;;;20.10;;
21519;SDS011;10921;53.614;9.882;2023-12-20T10:47:57;22.50;;;20.35;;
21519;SDS011;10921;53.614;9.882;2023-12-20T10:50:27;21.55;;;19.52;;
21519;SDS011;10921;53.614;9.882;2023-12-20T10:52:55;22.67;;;19.00;;
21519;SDS011;10921;53.614;9.882;2023-12-20T10:55:22;23.02;;;19.02;;
21519;SDS011;10921;53.614;9.882;2023-12-20T10:58:08;20.55;;;18.08;;
21519;SDS011;10921;53.614;9.882;2023-12-20T11:00:40;21.40;;;18.85;;
21519;SDS011;10921;53.614;9.882;2023-12-20T11:03:08;30.40;;;19.27;;
21519;SDS011;10921;53.614;9.882;2023-12-20T11:05:49;25.02;;;22.52;;
21519;SDS011;10921;53.614;9.882;2023-12-20T11:08:22;26.70;;;23.70;;
21519;SDS011;10921;53.614;9.882;2023-12-20T11:10:56;27.75;;;24.88;;
21519;SDS011;10921;53.614;9.882;2023-12-20T11:16:26;33.30;;;26.42;;
21519;SDS011;10921;53.614;9.882;2023-12-20T11:19:06;36.50;;;28.25;;
21519;SDS011;10921;53.614;9.882;2023-12-20T11:21:33;31.58;;;28.20;;
21519;SDS011;10921;53.614;9.882;2023-12-20T11:24:00;31.75;;;28.42;;
21519;SDS011;10921;53.614;9.882;2023-12-20T11:26:28;31.95;;;28.77;;
21519;SDS011;10921;53.614;9.882;2023-12-20T11:31:58;30.85;;;27.85;;
21519;SDS011;10921;53.614;9.882;2023-12-20T11:34:32;31.25;;;28.15;;
21519;SDS011;10921;53.614;9.882;2023-12-20T11:37:00;31.80;;;28.67;;
21519;SDS011;10921;53.614;9.882;2023-12-20T11:39:29;35.85;;;29.45;;
21519;SDS011;10921;53.614;9.882;2023-12-20T11:41:57;38.75;;;28.67;;
21519;SDS011;10921;53.614;9.882;2023-12-20T11:44:25;37.58;;;29.88;;
21519;SDS011;10921;53.614;9.882;2023-12-20T11:46:52;43.35;;;30.90;;
21519;SDS011;10921;53.614;9.882;2023-12-20T11:49:22;39.83;;;30.13;;
21519;SDS011;10921;53.614;9.882;2023-12-20T11:51:50;36.05;;;30.63;;
21519;SDS011;10921;53.614;9.882;2023-12-20T11:54:17;42.03;;;30.48;;
21519;SDS011;10921;53.614;9.882;2023-12-20T11:56:44;53.40;;;30.88;;
21519;SDS011;10921;53.614;9.882;2023-12-20T11:59:11;56.28;;;30.50;;
21519;SDS011;10921;53.614;9.882;2023-12-20T12:01:49;41.35;;;30.60;;
21519;SDS011;10921;53.614;9.882;2023-12-20T12:04:17;41.63;;;30.08;;
21519;SDS011;10921;53.614;9.882;2023-12-20T12:06:44;46.35;;;30.33;;
21519;SDS011;10921;53.614;9.882;2023-12-20T12:09:12;42.63;;;31.08;;
21519;SDS011;10921;53.614;9.882;2023-12-20T12:11:38;53.75;;;31.13;;
21519;SDS011;10921;53.614;9.882;2023-12-20T12:14:06;43.67;;;30.98;;
21519;SDS011;10921;53.614;9.882;2023-12-20T12:16:33;49.17;;;32.33;;
21519;SDS011;10921;53.614;9.882;2023-12-20T12:19:00;41.83;;;31.65;;
21519;SDS011;10921;53.614;9.882;2023-12-20T12:21:27;54.03;;;31.98;;
21519;SDS011;10921;53.614;9.882;2023-12-20T12:24:08;51.47;;;30.55;;
21519;SDS011;10921;53.614;9.882;2023-12-20T12:26:35;44.10;;;28.80;;
21519;SDS011;10921;53.614;9.882;2023-12-20T12:29:02;46.25;;;26.10;;
21519;SDS011;10921;53.614;9.882;2023-12-20T12:31:28;39.72;;;23.17;;
21519;SDS011;10921;53.614;9.882;2023-12-20T12:33:56;33.95;;;20.63;;
21519;SDS011;10921;53.614;9.882;2023-12-20T12:36:23;33.92;;;20.77;;
21519;SDS011;10921;53.614;9.882;2023-12-20T12:38:50;30.40;;;18.75;;
21519;SDS011;10921;53.614;9.882;2023-12-20T12:41:17;35.80;;;18.77;;
21519;SDS011;10921;53.614;9.882;2023-12-20T12:43:43;28.77;;;18.70;;
21519;SDS011;10921;53.614;9.882;2023-12-20T12:46:10;38.35;;;18.50;;
21519;SDS011;10921;53.614;9.882;2023-12-20T12:48:37;45.22;;;19.13;;
21519;SDS011;10921;53.614;9.882;2023-12-20T12:51:07;27.05;;;17.85;;
21519;SDS011;10921;53.614;9.882;2023-12-20T12:53:38;42.40;;;18.85;;
21519;SDS011;10921;53.614;9.882;2023-12-20T12:56:06;34.90;;;18.10;;
21519;SDS011;10921;53.614;9.882;2023-12-20T12:58:32;38.20;;;18.52;;
21519;SDS011;10921;53.614;9.882;2023-12-20T13:00:59;37.95;;;17.30;;
21519;SDS011;10921;53.614;9.882;2023-12-20T13:03:26;34.58;;;17.88;;
21519;SDS011;10921;53.614;9.882;2023-12-20T13:05:53;36.65;;;17.20;;
21519;SDS011;10921;53.614;9.882;2023-12-20T13:08:19;35.75;;;17.35;;
21519;SDS011;10921;53.614;9.882;2023-12-20T13:10:46;35.33;;;17.70;;
21519;SDS011;10921;53.614;9.882;2023-12-20T13:13:12;41.67;;;17.65;;
21519;SDS011;10921;53.614;9.882;2023-12-20T13:15:39;32.00;;;17.55;;
21519;SDS011;10921;53.614;9.882;2023-12-20T13:18:06;38.95;;;18.90;;
21519;SDS011;10921;53.614;9.882;2023-12-20T13:20:33;39.65;;;17.05;;
21519;SDS011;10921;53.614;9.882;2023-12-20T13:23:00;38.50;;;16.27;;
21519;SDS011;10921;53.614;9.882;2023-12-20T13:25:26;36.72;;;16.75;;
21519;SDS011;10921;53.614;9.882;2023-12-20T13:27:53;36.33;;;16.50;;
21519;SDS011;10921;53.614;9.882;2023-12-20T13:30:19;29.38;;;15.63;;
21519;SDS011;10921;53.614;9.882;2023-12-20T13:32:46;42.47;;;15.90;;
21519;SDS011;10921;53.614;9.882;2023-12-20T13:35:12;31.63;;;14.95;;
21519;SDS011;10921;53.614;9.882;2023-12-20T13:37:39;36.33;;;16.08;;
21519;SDS011;10921;53.614;9.882;2023-12-20T13:40:06;40.10;;;18.33;;
21519;SDS011;10921;53.614;9.882;2023-12-20T13:42:34;44.30;;;16.55;;
21519;SDS011;10921;53.614;9.882;2023-12-20T13:45:00;41.83;;;15.55;;
21519;SDS011;10921;53.614;9.882;2023-12-20T13:47:27;42.20;;;16.13;;
21519;SDS011;10921;53.614;9.882;2023-12-20T13:49:55;42.40;;;15.40;;
21519;SDS011;10921;53.614;9.882;2023-12-20T13:52:22;39.13;;;15.40;;
21519;SDS011;10921;53.614;9.882;2023-12-20T13:54:49;37.15;;;16.17;;
21519;SDS011;10921;53.614;9.882;2023-12-20T13:57:15;45.13;;;16.63;;
21519;SDS011;10921;53.614;9.882;2023-12-20T13:59:46;34.78;;;14.57;;
21519;SDS011;10921;53.614;9.882;2023-12-20T14:02:13;40.92;;;14.68;;
21519;SDS011;10921;53.614;9.882;2023-12-20T14:04:39;41.55;;;14.55;;
21519;SDS011;10921;53.614;9.882;2023-12-20T14:07:09;40.88;;;16.17;;
21519;SDS011;10921;53.614;9.882;2023-12-20T14:09:39;40.53;;;16.75;;
21519;SDS011;10921;53.614;9.882;2023-12-20T14:12:11;46.92;;;17.50;;
21519;SDS011;10921;53.614;9.882;2023-12-20T14:14:38;47.08;;;16.33;;
21519;SDS011;10921;53.614;9.882;2023-12-20T14:17:08;39.25;;;16.60;;
21519;SDS011;10921;53.614;9.882;2023-12-20T14:19:35;49.30;;;17.30;;
21519;SDS011;10921;53.614;9.882;2023-12-20T14:22:02;39.67;;;16.70;;
21519;SDS011;10921;53.614;9.882;2023-12-20T14:24:30;38.78;;;17.83;;
21519;SDS011;10921;53.614;9.882;2023-12-20T14:26:57;42.40;;;17.55;;
21519;SDS011;10921;53.614;9.882;2023-12-20T14:29:24;34.03;;;15.18;;
21519;SDS011;10921;53.614;9.882;2023-12-20T14:31:52;35.67;;;15.73;;
21519;SDS011;10921;53.614;9.882;2023-12-20T14:34:19;40.20;;;17.88;;